Weather observations for the past three days for
Two Harbors
Imperial (Metric)
Date Time (cdt) Wind (mph) Vis. (mi.) Weather Sky Cond. Temperature (ºF) Relative Humidity Wind Chill (°F) Heat Index (°F) Pressure Precipitation (in)
Air Dwpt 6 hour altimeter (in) sea level (mb) 1 hr 3 hr 6 hr
Max. Min.
05 19:35 NW 5 10.00 Overcast OVC050 37.4 19.4 48% 34 29.82 0.0
05 19:15 NW 6 10.00 Overcast OVC050 37.4 19.4 48% 33 29.81 0.0
05 18:55 NW 7 10.00 Overcast BKN050 OVC055 37.4 21.2 52% 33 29.81 0.0
05 18:35 W 6 10.00 Overcast OVC050 37.4 21.2 52% 33 29.81 0.0
05 18:15 NW 7 10.00 Overcast OVC049 37.4 21.2 52% 33 29.8 0.0
05 17:55 NW 8 G 21 10.00 Overcast OVC049 37.4 19.4 48% 32 29.8 0.0
05 17:35 W 7 10.00 Overcast OVC049 39.2 21.2 48% 35 29.79 0.0
05 17:15 N 5 G 18 10.00 Overcast OVC049 39.2 21.2 48% 36 29.79 0.0
05 16:55 NW 10 G 17 10.00 Overcast OVC049 39.2 21.2 48% 33 29.79 0.0
05 16:35 W 5 G 16 10.00 Overcast OVC049 37.4 21.2 52% 34 29.79 0.0
05 16:15 W 9 G 22 10.00 Overcast OVC049 37.4 21.2 52% 31 29.79 0.0
05 15:55 W 14 G 23 10.00 Overcast OVC049 37.4 21.2 52% 30 29.78 0.0
05 15:35 W 10 G 21 10.00 Overcast OVC049 37.4 21.2 52% 31 29.79 0.0
05 15:15 W 13 G 17 10.00 Overcast OVC049 37.4 21.2 52% 30 29.78 0.0
05 14:55 W 10 G 24 10.00 Overcast OVC049 37.4 19.4 48% 31 29.79 0.0
05 14:35 W 12 G 16 10.00 Overcast OVC049 37.4 19.4 48% 30 29.78 0.0
05 14:15 W 9 G 20 10.00 Overcast OVC049 37.4 19.4 48% 31 29.78 0.0
05 13:55 NW 8 10.00 Overcast OVC049 37.4 19.4 48% 32 29.78 0.0
05 13:35 W 9 G 21 10.00 Mostly Cloudy BKN049 37.4 19.4 48% 31 29.77 0.0
05 13:15 W 12 G 22 10.00 Mostly Cloudy BKN047 37.4 19.4 48% 30 29.77 0.0
05 12:55 NW 12 G 21 10.00 Overcast OVC045 35.6 17.6 48% 28 29.77 0.0
05 12:35 NW 14 G 22 10.00 Mostly Cloudy BKN045 35.6 19.4 52% 27 29.77 0.0
05 12:15 W 15 G 26 10.00 Mostly Cloudy BKN041 BKN047 35.6 19.4 52% 27 29.76 0.0
05 11:55 W 8 G 18 10.00 Overcast OVC039 33.8 19.4 56% 28 29.76 0.0
05 11:35 W 13 G 21 10.00 Overcast OVC039 33.8 19.4 56% 25 29.76 0.0
05 11:15 W 10 G 20 10.00 Overcast OVC039 33.8 19.4 56% 26 29.75 0.0
05 10:55 W 14 G 24 10.00 Overcast OVC039 32 19.4 60% 23 29.75 0.0
05 10:35 NW 12 G 21 10.00 Overcast OVC041 30.2 19.4 64% 21 29.75 0.0
05 10:15 W 8 G 20 10.00 Overcast OVC039 30.2 19.4 64% 23 29.74 0.0
05 09:55 W 9 G 20 10.00 Overcast OVC039 30.2 17.6 59% 23 29.74 0.0
05 09:35 NW 10 G 18 10.00 Overcast OVC043 30.2 17.6 59% 22 29.74 0.0
05 09:15 NW 10 G 21 10.00 Overcast OVC043 28.4 17.6 64% 20 29.73 0.0
05 08:55 NW 12 G 20 10.00 Overcast OVC045 30.2 15.8 55% 21 29.72 0.0
05 08:35 NW 10 G 16 10.00 Overcast OVC045 30.2 17.6 59% 22 29.71 0.0
05 08:15 W 12 G 16 10.00 Mostly Cloudy SCT036 BKN046 BKN050 30.2 17.6 59% 21 29.7 0.0
05 07:55 W 9 G 22 10.00 Mostly Cloudy BKN038 30.2 19.4 64% 23 29.69 0.0
05 07:35 NW 6 G 17 10.00 Partly Cloudy SCT036 30.2 19.4 64% 25 29.69 0.0
05 07:15 NW 9 G 18 10.00 Mostly Cloudy BKN034 30.2 19.4 64% 23 29.68 0.0
05 06:55 W 7 10.00 Overcast OVC034 30.2 19.4 64% 24 29.68 0.0
05 06:35 NW 10 G 17 10.00 Overcast OVC032 30.2 19.4 64% 22 29.67 0.0
05 06:15 NW 9 G 17 10.00 Overcast OVC028 28.4 21.2 74% 20 29.67 0.0
05 05:55 W 12 10.00 Overcast OVC026 28.4 21.2 74% 19 29.66 0.0
05 05:35 W 14 10.00 Overcast OVC026 28.4 21.2 74% 18 29.66 0.0
05 05:15 W 6 G 22 10.00 Overcast OVC026 28.4 21.2 74% 23 29.65 0.0
05 04:55 W 13 G 18 10.00 Overcast OVC024 30.2 23 75% 21 29.64 0.0
05 04:35 NW 6 10.00 Partly Cloudy SCT024 28.4 24.8 86% 23 29.63 0.0
05 04:15 W 8 G 21 10.00 Fair CLR 30.2 24.8 80% 23 29.63 0.0
05 03:55 W 12 G 20 10.00 Partly Cloudy SCT030 SCT035 30.2 24.8 80% 21 29.62 0.0
05 03:35 NW 9 10.00 Overcast OVC031 32 26.6 80% 25 29.61 0.0
05 03:15 NW 6 10.00 Mostly Cloudy BKN033 30.2 26.6 86% 25 29.61 0.0
05 02:55 NW 7 G 20 10.00 Partly Cloudy SCT100 30.2 24.8 80% 24 29.61 0.0
05 02:35 W 7 10.00 Partly Cloudy SCT100 30.2 24.8 80% 24 29.62 0.0
05 02:15 NW 6 10.00 Fair CLR 30.2 24.8 80% 25 29.61 0.0
05 01:55 NW 5 10.00 Fair CLR 30.2 24.8 80% 26 29.61 0.0
05 01:35 NW 7 10.00 Fair CLR 32 24.8 75% 26 29.61 0.0
05 01:15 NW 8 10.00 Fair CLR 32 26.6 80% 25 29.61 0.0
05 00:55 NW 6 10.00 Fair CLR 33.8 26.6 75% 29 29.61 0.0
05 00:35 NW 7 10.00 Fair CLR 33.8 26.6 75% 28 29.61 0.0
05 00:15 W 6 10.00 Fair CLR 33.8 26.6 75% 29 29.6 0.0
04 23:55 W 6 10.00 Fair CLR 33.8 26.6 75% 29 29.6 0.0
04 23:35 W 8 10.00 Fair CLR 35.6 26.6 70% 30 29.6 0.0
04 23:15 W 6 10.00 Fair CLR 35.6 26.6 70% 31 29.6 0.0
04 22:55 W 9 10.00 Fair CLR 35.6 26.6 70% 29 29.6 0.0
04 22:35 W 6 10.00 Fair CLR 35.6 26.6 70% 31 29.6 0.0
04 22:15 NW 6 10.00 Partly Cloudy SCT090 37.4 26.6 65% 33 29.59 0.0
04 21:55 W 8 10.00 Partly Cloudy SCT080 37.4 26.6 65% 32 29.59 0.0
04 21:35 NW 8 10.00 Partly Cloudy SCT050 SCT080 37.4 24.8 60% 32 29.58 0.0
04 21:15 W 6 10.00 Partly Cloudy SCT080 37.4 23 56% 33 29.57 0.0
04 20:55 W 6 10.00 Partly Cloudy SCT080 37.4 23 56% 33 29.57 0.0
04 20:35 W 6 10.00 Mostly Cloudy BKN080 39.2 21.2 48% 36 29.56 0.0
04 20:15 W 10 G 18 10.00 Overcast OVC080 39.2 23 52% 33 29.55 0.0
04 19:55 W 10 G 17 10.00 Overcast OVC070 39.2 23 52% 33 29.54 0.0
04 19:35 W 13 G 22 10.00 Overcast OVC070 41 23 49% 34 29.54 0.0
04 19:15 W 15 G 23 10.00 Overcast SCT049 OVC060 41 24.8 53% 34 29.54 0.0
04 18:55 W 12 G 24 10.00 Overcast SCT049 OVC060 41 24.8 53% 35 29.53 0.0
04 18:35 W 18 G 24 10.00 Overcast OVC060 41 26.6 57% 33 29.53 0.0
04 18:15 W 18 G 25 10.00 Overcast SCT047 OVC060 41 26.6 57% 33 29.53 0.0
04 17:55 W 10 G 16 10.00 Overcast SCT049 OVC060 42.8 26.6 53% 38 29.52 0.0
04 17:35 W 17 G 24 10.00 Overcast BKN050 OVC060 42.8 26.6 53% 35 29.51 0.0
04 17:15 W 21 G 26 10.00 Overcast and Breezy SCT050 OVC060 42.8 26.6 53% 35 29.5 0.0
04 16:55 W 14 G 26 10.00 Overcast SCT050 OVC060 42.8 26.6 53% 36 29.5 0.0
04 16:35 W 20 G 28 10.00 Overcast OVC060 44.6 26.6 49% 37 29.48 0.0
04 16:15 W 20 G 29 10.00 Overcast SCT048 OVC060 44.6 26.6 49% 37 29.48 0.0
04 15:55 W 13 G 30 10.00 Overcast OVC060 44.6 28.4 53% 39 29.47 0.0
04 15:35 W 17 G 28 10.00 Mostly Cloudy BKN049 BKN055 44.6 28.4 53% 38 29.46 0.0
04 15:15 W 12 G 23 10.00 Mostly Cloudy SCT048 BKN060 44.6 28.4 53% 39 29.46 0.0
04 14:55 W 16 G 28 10.00 Mostly Cloudy BKN049 BKN060 44.6 28.4 53% 38 29.45 0.0
04 14:35 W 14 G 28 10.00 Mostly Cloudy SCT047 BKN060 46.4 30.2 53% 41 29.44 0.0
04 14:15 W 15 G 29 10.00 Mostly Cloudy SCT047 BKN050 46.4 30.2 53% 41 29.43 0.0
04 13:55 W 20 G 30 10.00 Mostly Cloudy SCT043 BKN050 46.4 30.2 53% 40 29.41 0.0
04 13:35 W 14 G 29 10.00 Mostly Cloudy SCT046 BKN050 46.4 30.2 53% 41 29.41 0.0
04 13:15 W 20 G 31 10.00 Mostly Cloudy SCT043 BKN050 46.4 30.2 53% 40 29.4 0.0
04 12:55 W 16 G 31 10.00 Mostly Cloudy SCT039 BKN050 46.4 30.2 53% 40 29.4 0.0
04 12:35 W 13 G 26 10.00 Mostly Cloudy BKN039 BKN050 44.6 32 61% 39 29.39 0.0
04 12:15 W 18 G 29 10.00 Mostly Cloudy SCT039 SCT047 BKN050 48.2 32 54% 42 29.38 0.0
04 11:55 NW 16 G 28 10.00 Mostly Cloudy BKN037 BKN050 46.4 32 57% 40 29.38 0.0
04 11:35 W 15 G 36 10.00 Mostly Cloudy SCT040 BKN050 46.4 32 57% 41 29.37 0.0
04 11:15 W 22 G 31 10.00 Mostly Cloudy and Breezy SCT037 BKN048 46.4 32 57% 39 29.36 0.0
04 10:55 W 22 G 31 10.00 Overcast and Breezy SCT041 OVC050 46.4 33.8 62% 39 29.34 0.0
04 10:35 W 20 G 31 10.00 Mostly Cloudy SCT043 BKN050 48.2 33.8 58% 42 29.32 0.0
04 10:15 W 15 G 30 10.00 Mostly Cloudy BKN043 BKN050 48.2 33.8 58% 43 29.31 0.0
04 09:55 W 15 G 26 10.00 Overcast BKN043 OVC050 48.2 35.6 62% 43 29.3 0.0
04 09:35 W 20 G 30 10.00 Mostly Cloudy SCT032 SCT039 BKN050 48.2 37.4 66% 42 29.29 0.0
04 09:15 W 16 G 30 10.00 Partly Cloudy SCT031 SCT036 48.2 39.2 71% 43 29.29 0.0
04 08:55 W 18 G 26 10.00 Overcast BKN026 OVC036 46.4 39.2 76% 40 29.29 0.0
04 08:35 W 17 G 28 10.00 Mostly Cloudy BKN026 44.6 39.2 81% 38 29.29 0.0
04 08:15 W 14 G 22 10.00 Partly Cloudy SCT029 SCT110 44.6 39.2 81% 39 29.28 0.0
04 07:55 W 14 G 21 10.00 Partly Cloudy SCT060 44.6 39.2 81% 39 29.26 0.0
04 07:35 W 17 G 25 10.00 Partly Cloudy SCT033 SCT045 SCT060 44.6 39.2 81% 38 29.27 0.0
04 07:15 W 14 G 25 7.00 Light Rain SCT031 SCT039 OVC060 44.6 41 87% 39 29.27 0.0
04 06:55 W 9 G 22 10.00 Light Drizzle BKN060 48.2 39.2 71% 45 29.26 0.0
04 06:35 W 14 G 24 10.00 Partly Cloudy SCT060 48.2 37.4 66% 43 29.24 0.0
04 06:15 NW 12 G 26 10.00 Fair CLR 50 37.4 62% 46 29.24 0.0
04 05:55 NW 12 G 24 10.00 Fair CLR 51.8 39.2 62% 29.23 0.0
04 05:35 W 14 G 18 10.00 Fair CLR 55.4 30.2 38% 29.2 0.0
04 05:15 SW 13 G 20 10.00 Fair CLR 55.4 30.2 38% 29.2 0.0
04 04:55 SW 10 10.00 Partly Cloudy SCT060 55.4 32 41% 29.2 0.0
04 04:35 SW 12 10.00 Partly Cloudy SCT060 SCT070 SCT095 55.4 33.8 44% 29.21 0.0
04 04:15 SW 15 G 18 10.00 Partly Cloudy SCT095 55.4 30.2 38% 29.23 0.0
04 03:55 SW 13 G 17 10.00 Partly Cloudy SCT110 53.6 30.2 41% 29.24 0.0
04 03:35 SW 10 G 17 10.00 Partly Cloudy SCT110 53.6 30.2 41% 29.25 0.0
04 03:15 SW 12 10.00 Fair CLR 53.6 30.2 41% 29.26 0.0
04 02:55 SW 14 G 18 10.00 Fair CLR 53.6 30.2 41% 29.28 0.0
04 02:35 SW 10 G 18 10.00 Fair CLR 53.6 30.2 41% 29.29 0.0
04 02:15 SW 12 G 17 10.00 Fair CLR 53.6 30.2 41% 29.31 0.0
04 01:55 SW 12 G 18 10.00 Fair CLR 53.6 30.2 41% 29.32 0.0
04 01:35 SW 14 G 18 10.00 Fair CLR 53.6 30.2 41% 29.34 0.0
04 01:15 SW 12 10.00 Fair CLR 53.6 30.2 41% 29.36 0.0
04 00:55 SW 9 10.00 Fair CLR 51.8 30.2 44% 29.38 0.0
04 00:35 SW 10 10.00 Fair CLR 50 30.2 47% 46 29.38 0.0
04 00:15 SW 7 10.00 Fair CLR 48.2 28.4 46% 46 29.4 0.0
03 23:55 SW 5 10.00 Fair CLR 46.4 26.6 46% 45 29.41 0.0
03 23:35 SW 3 10.00 Fair CLR 46.4 28.4 50% 29.43 0.0
03 23:15 Calm 10.00 Fair CLR 46.4 26.6 46% 29.44 0.0
03 22:55 SW 3 10.00 Fair CLR 48.2 28.4 46% 29.46 0.0
03 22:35 Calm 10.00 Fair CLR 48.2 28.4 46% 29.47 0.0
03 22:15 Calm 5.00 Fair with Haze CLR 48.2 28.4 46% 29.49 0.0
03 21:55 SW 3 10.00 Fair CLR 50 26.6 40% 29.5 0.0
03 21:35 SW 3 10.00 Fair CLR 51.8 26.6 38% 29.51 0.0
03 21:15 SW 3 10.00 Fair CLR 51.8 26.6 38% 29.52 0.0
03 20:55 Calm 10.00 Fair CLR 53.6 26.6 35% 29.53 0.0
03 20:35 Calm 10.00 Fair CLR 53.6 26.6 35% 29.54 0.0
03 20:15 Calm 10.00 Fair CLR 55.4 26.6 33% 29.55 0.0
03 19:55 SW 3 10.00 Fair CLR 57.2 28.4 33% 29.56 0.0
03 19:35 W 5 10.00 Fair CLR 59 26.6 29% 29.57 0.0
03 19:15 W 7 G 18 10.00 Fair CLR 59 28.4 31% 29.57 0.0
03 18:55 W 6 10.00 Fair CLR 60.8 26.6 27% 29.57 0.0
03 18:35 W 9 G 17 10.00 Fair CLR 60.8 26.6 27% 29.57 0.0
03 18:15 NW 9 G 17 10.00 Fair CLR 62.6 28.4 27% 29.57 0.0
03 17:55 W 14 G 20 10.00 Fair CLR 62.6 28.4 27% 29.58 0.0
03 17:35 W 8 10.00 Fair CLR 62.6 28.4 27% 29.58 0.0
03 17:15 W 9 G 22 10.00 Fair CLR 62.6 28.4 27% 29.58 0.0
03 16:55 W 10 G 17 10.00 Fair CLR 62.6 28.4 27% 29.58 0.0
03 16:35 NW 9 G 21 10.00 Fair CLR 62.6 28.4 27% 29.59 0.0
03 16:15 W 12 G 22 10.00 Fair CLR 62.6 28.4 27% 29.59 0.0
03 15:55 W 10 G 18 10.00 Fair CLR 62.6 28.4 27% 29.6 0.0
03 15:35 NW 8 G 16 10.00 Fair CLR 62.6 28.4 27% 29.6 0.0
03 15:15 W 12 G 20 10.00 Fair CLR 60.8 26.6 27% 29.61 0.0
03 14:55 NW 9 G 20 10.00 Fair CLR 62.6 23 22% 29.62 0.0
03 14:35 W 15 G 25 10.00 Fair CLR 60.8 21.2 22% 29.62 0.0
03 14:15 NW 9 G 20 10.00 Fair CLR 60.8 19.4 20% 29.63 0.0
03 13:55 NW 10 G 22 10.00 Fair CLR 60.8 21.2 22% 29.63 0.0
03 13:35 W 14 G 21 10.00 Fair CLR 60.8 21.2 22% 29.64 0.0
03 13:15 W 10 G 24 10.00 Fair CLR 59 21.2 23% 29.64 0.0
03 12:55 W 15 G 24 10.00 Fair CLR 59 23 25% 29.64 0.0
03 12:35 NW 10 G 16 10.00 Fair CLR 59 21.2 23% 29.65 0.0
03 12:15 W 13 G 21 10.00 Fair CLR 57.2 21.2 25% 29.65 0.0
03 11:55 NW 9 G 22 10.00 Fair CLR 59 26.6 29% 29.65 0.0
03 11:35 W 10 10.00 Fair CLR 57.2 30.2 36% 29.64 0.0
03 11:15 NW 12 G 18 10.00 Fair CLR 57.2 33.8 41% 29.65 0.0
03 10:55 NW 9 G 21 10.00 Fair CLR 57.2 35.6 44% 29.65 0.0
03 10:35 NW 10 G 16 10.00 Fair CLR 57.2 37.4 48% 29.65 0.0
03 10:15 W 12 G 17 10.00 Fair CLR 55.4 39.2 55% 29.65 0.0
03 09:55 W 9 G 16 10.00 Fair CLR 55.4 39.2 55% 29.65 0.0
03 09:35 NW 7 10.00 Fair CLR 55.4 39.2 55% 29.65 0.0
03 09:15 NW 8 10.00 Fair CLR 55.4 39.2 55% 29.65 0.0
03 08:55 NW 5 10.00 Fair CLR 53.6 39.2 58% 29.65 0.0
03 08:35 W 3 10.00 Fair CLR 53.6 41 63% 29.65 0.0
03 08:15 NW 8 10.00 Fair CLR 51.8 41 67% 29.66 0.0
03 07:55 NW 6 10.00 Fair CLR 50 41 71% 48 29.66 0.0
03 07:35 NW 5 1.00 Fair CLR 46.4 39.2 76% 45 29.66 0.0
03 07:15 Calm 10.00 Fair CLR 39.2 39.2 100% 29.65 0.0
03 06:55 Calm 10.00 Fair CLR 37.4 37.4 100% 29.66 0.0
03 06:35 Calm 10.00 Fair CLR 33.8 33.8 100% 29.66 0.0
03 06:15 Calm 10.00 Fair CLR 33.8 33.8 100% 29.65 0.0
03 05:55 Calm 10.00 Fair CLR 33.8 33.8 100% 29.65 0.0
03 05:35 Calm 10.00 Fair CLR 35.6 35.6 100% 29.66 0.0
03 05:15 Calm 10.00 Fair CLR 37.4 35.6 93% 29.66 0.0
03 04:55 Calm 10.00 Fair CLR 39.2 37.4 93% 29.66 0.0
03 04:35 Calm 10.00 Partly Cloudy SCT080 37.4 37.4 100% 29.67 0.0
03 04:15 Calm 10.00 Mostly Cloudy BKN080 37.4 37.4 100% 29.67 0.0
03 03:55 Calm 10.00 Mostly Cloudy SCT080 BKN095 37.4 37.4 100% 29.67 0.0
03 03:35 Calm 10.00 Mostly Cloudy BKN095 37.4 35.6 93% 29.67 0.0
03 03:15 Calm 10.00 Overcast OVC095 39.2 35.6 87% 29.68 0.0
03 02:55 Calm 10.00 Mostly Cloudy BKN085 BKN110 37.4 35.6 93% 29.69 0.0
03 02:35 Calm 10.00 Mostly Cloudy SCT080 BKN095 39.2 35.6 87% 29.69 0.0
03 02:15 Calm 10.00 Overcast SCT080 OVC085 39.2 33.8 81% 29.7 0.0
03 01:55 Calm 10.00 Overcast OVC080 39.2 33.8 81% 29.71 0.0
03 01:35 Calm 10.00 Overcast BKN080 OVC100 39.2 32 75% 29.71 0.0
03 01:15 Calm 10.00 Mostly Cloudy BKN090 BKN110 39.2 32 75% 29.71 0.0
03 00:55 Calm 10.00 Overcast SCT080 BKN085 OVC110 41 35.6 81% 29.72 0.0
03 00:35 Calm 10.00 Overcast BKN080 OVC100 44.6 42.8 93% 29.73 0.0
03 00:15 Calm 10.00 Overcast BKN080 OVC090 44.6 42.8 93% 29.73 0.0
02 23:55 Calm 10.00 Overcast SCT041 SCT055 OVC080 46.4 42.8 87% 29.73 0.0
02 23:35 N 6 10.00 Light Rain SCT041 SCT048 BKN050 46.4 42.8 87% 44 29.73 0.0
02 23:15 Calm 10.00 Drizzle OVC050 48.2 42.8 82% 29.75 0.0
02 22:55 Calm 10.00 Light Drizzle BKN060 OVC065 48.2 42.8 82% 29.75 0.0
02 22:35 NW 5 10.00 Light Rain BKN050 OVC070 51.8 41 67% 29.76 0.0
02 22:15 W 9 10.00 Mostly Cloudy BKN060 BKN075 BKN085 53.6 37.4 54% 29.76 0.0
02 21:55 Calm 10.00 Mostly Cloudy SCT060 BKN075 44.6 30.2 57% 29.76 0.0
02 21:35 Calm 10.00 Overcast BKN075 OVC090 46.4 28.4 50% 29.76 0.0
02 21:15 Calm 10.00 Overcast OVC075 44.6 28.4 53% 29.76 0.0
02 20:55 Calm 10.00 Mostly Cloudy BKN075 BKN085 46.4 30.2 53% 29.76 0.0
02 20:35 Calm 10.00 Partly Cloudy SCT085 46.4 28.4 50% 29.76 0.0
02 20:15 Calm 10.00 Mostly Cloudy BKN085 46.4 26.6 46% 29.76 0.0
02 19:55 Calm 10.00 Overcast OVC085 46.4 26.6 46% 29.76 0.0
Date Time (cdt) Wind (mph) Vis. (mi.) Weather Sky Cond. Air Dwpt Max. Min. Relative Humidity Wind Chill (°F) Heat Index (°F) altimeter (in) sea level (mb) 1 hr 3 hr 6 hr
6 hour
Temperature (ºF) Pressure Precipitation (in)